Portland, Oregon
Traffic Map
Current Weather Conditions
Portland, Oregon
Overcast Light Rain
Overcast
47°
Feels Like: 41°
Wind Chill: 41° Ceiling: 4700
Heat Index: 47° Visibility: 10mi
Dew Point: 47° Wind: 14mph
Humidity: 100% Direction: 120° (ESE)
Pressure: 29.85in Gusts: 0mph
Raw Report DataKPDX 241453Z 12012KT 10SM -RA OVC047 08/08 A2985 RMK AO2 SLP107 P0002 60019 T00830083 51008
Traffic Incident Summary
Active as of:
Severity:
Category:
InformationThere was an issue retrieving the traffic information for this location. Please try a different location or try again shortly.
Advertisements
Track Severe Weather on mobile